createdAt,value
2019-06-26T00:03:09.806Z,26.45
2019-06-26T00:08:03.889Z,26.31
2019-06-26T00:12:57.854Z,26.26
2019-06-26T00:17:51.822Z,26.23
2019-06-26T00:22:45.788Z,26.18
2019-06-26T00:27:39.762Z,26.13
2019-06-26T00:32:33.747Z,26.15
2019-06-26T00:37:27.779Z,26.06
2019-06-26T00:42:21.724Z,25.97
2019-06-26T00:47:15.801Z,25.91
2019-06-26T00:52:09.756Z,25.84
2019-06-26T00:57:03.721Z,25.83
2019-06-26T01:01:57.791Z,25.79
2019-06-26T01:06:51.755Z,25.82
2019-06-26T01:11:45.702Z,25.81
2019-06-26T01:16:39.703Z,25.77
2019-06-26T01:21:33.644Z,25.69
2019-06-26T01:26:27.748Z,25.74
2019-06-26T01:31:21.861Z,25.66
2019-06-26T01:36:15.857Z,25.61
2019-06-26T01:41:09.849Z,25.53
2019-06-26T01:46:03.912Z,25.48
2019-06-26T01:50:57.981Z,25.51
2019-06-26T01:55:51.959Z,25.54
2019-06-26T02:00:45.987Z,25.48
2019-06-26T02:05:39.949Z,25.47
2019-06-26T02:10:34.018Z,25.41
2019-06-26T02:15:27.970Z,25.30
2019-06-26T02:20:21.942Z,25.32
2019-06-26T02:25:15.911Z,25.23
2019-06-26T02:30:10.199Z,25.22
2019-06-26T02:35:09.352Z,25.15
2019-06-26T02:40:03.227Z,25.13
2019-06-26T02:44:57.178Z,25.07
2019-06-26T02:49:51.175Z,24.96
2019-06-26T02:54:45.240Z,24.94
2019-06-26T02:59:39.324Z,24.89
2019-06-26T03:04:33.292Z,24.99
2019-06-26T03:09:27.266Z,24.96
2019-06-26T03:14:21.455Z,24.93
2019-06-26T03:19:15.421Z,24.97
2019-06-26T03:24:09.369Z,24.93
2019-06-26T03:29:03.457Z,24.92
2019-06-26T03:33:57.424Z,25.02
2019-06-26T03:38:51.381Z,24.88
2019-06-26T03:43:45.342Z,24.87
2019-06-26T03:48:39.283Z,24.81
2019-06-26T03:53:33.264Z,24.82
2019-06-26T03:58:27.230Z,24.80
2019-06-26T04:03:21.176Z,24.82
2019-06-26T04:08:15.176Z,24.88
2019-06-26T04:13:09.145Z,24.86
2019-06-26T04:18:03.488Z,24.77
2019-06-26T04:22:57.513Z,24.70
2019-06-26T04:27:51.505Z,24.73
2019-06-26T04:32:45.503Z,24.76
2019-06-26T04:37:39.540Z,24.88
2019-06-26T04:42:33.566Z,24.85
2019-06-26T04:47:27.649Z,24.93
2019-06-26T04:52:21.864Z,24.96
2019-06-26T04:57:15.820Z,25.02
2019-06-26T05:02:09.805Z,24.83
2019-06-26T05:07:03.857Z,24.93
2019-06-26T05:11:57.853Z,25.09
2019-06-26T05:16:51.785Z,25.16
2019-06-26T05:21:45.908Z,25.28
2019-06-26T05:26:39.846Z,25.25
2019-06-26T05:31:33.932Z,25.33
2019-06-26T05:36:28.017Z,25.35
2019-06-26T05:41:22.085Z,25.35
2019-06-26T05:46:30.125Z,25.51
2019-06-26T05:51:11.946Z,25.42
2019-06-26T05:56:06.012Z,25.44
2019-06-26T06:01:00.139Z,25.47
2019-06-26T06:05:54.206Z,25.64
2019-06-26T06:10:48.185Z,25.69
2019-06-26T06:15:42.149Z,25.74
2019-06-26T06:20:37.614Z,25.83
2019-06-26T06:25:31.590Z,26.02
2019-06-26T06:30:25.864Z,26.12
2019-06-26T06:35:20.060Z,26.08
2019-06-26T06:40:14.235Z,26.23
2019-06-26T06:45:08.552Z,26.27
2019-06-26T06:50:04.027Z,26.32
2019-06-26T06:54:57.980Z,26.29
2019-06-26T06:59:52.054Z,26.41
2019-06-26T07:04:46.024Z,26.58
2019-06-26T07:09:39.989Z,26.60
2019-06-26T07:14:33.933Z,26.69
2019-06-26T07:19:28.230Z,26.95
2019-06-26T07:24:22.399Z,27.10
2019-06-26T07:29:16.383Z,27.11
2019-06-26T07:34:10.389Z,27.14
2019-06-26T07:39:04.713Z,27.20
2019-06-26T07:43:58.678Z,27.28
2019-06-26T07:48:52.642Z,27.56
2019-06-26T07:53:46.699Z,27.60
2019-06-26T07:58:40.668Z,27.61
2019-06-26T08:03:34.652Z,27.79
2019-06-26T08:08:28.609Z,27.95
2019-06-26T08:13:22.679Z,27.68
2019-06-26T08:18:16.755Z,27.92
2019-06-26T08:23:10.789Z,28.15
2019-06-26T08:28:04.768Z,27.95
2019-06-26T08:32:58.781Z,27.97
2019-06-26T08:38:09.071Z,28.25
2019-06-26T08:42:48.808Z,28.45
2019-06-26T08:47:42.996Z,28.52
2019-06-26T08:52:37.153Z,28.94
2019-06-26T08:57:31.116Z,28.63
2019-06-26T09:02:25.088Z,28.97
2019-06-26T09:07:19.300Z,29.17
2019-06-26T09:12:13.222Z,29.31
2019-06-26T09:17:07.205Z,29.30
2019-06-26T09:22:01.197Z,29.53
2019-06-26T09:26:55.157Z,29.40
2019-06-26T09:31:49.121Z,29.55
2019-06-26T09:36:43.141Z,29.97
2019-06-26T09:41:37.220Z,29.74
2019-06-26T09:46:31.196Z,29.85
2019-06-26T09:51:25.269Z,29.93
2019-06-26T09:56:19.264Z,30.24
2019-06-26T10:01:13.243Z,30.50
2019-06-26T10:06:07.257Z,30.84
2019-06-26T10:11:01.378Z,30.74
2019-06-26T10:15:55.609Z,30.81
2019-06-26T10:20:49.583Z,31.26
2019-06-26T10:25:43.572Z,31.41
2019-06-26T10:30:37.723Z,31.42
2019-06-26T10:35:31.694Z,31.59
2019-06-26T10:40:25.731Z,31.43
2019-06-26T10:45:19.762Z,31.51
2019-06-26T10:50:14.122Z,31.77
2019-06-26T10:55:08.712Z,32.39
2019-06-26T11:00:07.442Z,32.36
2019-06-26T11:05:01.877Z,32.50
2019-06-26T11:09:55.915Z,32.75
2019-06-26T11:14:49.990Z,33.06
2019-06-26T11:19:44.646Z,33.00
2019-06-26T11:24:38.762Z,33.31
2019-06-26T11:29:32.877Z,33.34
2019-06-26T11:34:26.852Z,33.34
2019-06-26T11:39:20.899Z,33.50
2019-06-26T11:44:14.916Z,34.02
2019-06-26T11:49:09.001Z,34.17
2019-06-26T11:54:03.072Z,34.23
2019-06-26T11:58:57.039Z,34.30
2019-06-26T12:03:51.158Z,34.94
2019-06-26T12:08:45.110Z,35.45
2019-06-26T12:13:39.213Z,35.39
2019-06-26T12:18:33.197Z,34.36
2019-06-26T12:23:27.284Z,34.59
2019-06-26T12:28:21.248Z,35.02
2019-06-26T12:33:15.404Z,34.56
2019-06-26T12:38:09.363Z,34.81
2019-06-26T12:43:03.360Z,35.44
2019-06-26T12:47:57.448Z,35.92
2019-06-26T12:52:51.500Z,36.39
2019-06-26T12:57:45.507Z,36.67
2019-06-26T13:02:39.657Z,36.86
2019-06-26T13:07:33.625Z,37.03
2019-06-26T13:12:27.715Z,36.69
2019-06-26T13:17:21.699Z,36.41
2019-06-26T13:22:15.772Z,36.66
2019-06-26T13:27:09.755Z,36.30
2019-06-26T13:32:03.774Z,36.89
2019-06-26T13:36:57.901Z,36.54
2019-06-26T13:41:52.044Z,36.70
2019-06-26T13:46:46.359Z,37.14
2019-06-26T13:51:40.435Z,36.91
2019-06-26T13:56:34.411Z,36.39
2019-06-26T14:01:28.423Z,36.63
2019-06-26T14:06:22.648Z,36.88
2019-06-26T14:11:16.629Z,37.26
2019-06-26T14:16:10.647Z,37.61
2019-06-26T14:21:04.715Z,37.86
2019-06-26T14:25:58.740Z,38.03
2019-06-26T14:30:52.827Z,38.39
2019-06-26T14:35:46.841Z,38.66
2019-06-26T14:40:40.813Z,39.07
2019-06-26T14:45:34.890Z,38.92
2019-06-26T14:50:28.992Z,39.09
2019-06-26T14:55:23.144Z,39.71
2019-06-26T15:00:17.456Z,39.97
2019-06-26T15:05:11.843Z,41.69
2019-06-26T15:10:07.397Z,43.04
2019-06-26T15:15:01.610Z,44.63
2019-06-26T15:19:55.727Z,45.94
2019-06-26T15:24:49.728Z,46.80
2019-06-26T15:29:44.201Z,47.62
2019-06-26T15:34:38.277Z,48.47
2019-06-26T15:39:32.258Z,48.73
2019-06-26T15:44:26.242Z,48.50
2019-06-26T15:49:20.231Z,48.89
2019-06-26T15:54:14.470Z,48.46
2019-06-26T15:59:08.645Z,48.74
2019-06-26T16:04:02.828Z,48.60
2019-06-26T16:08:56.785Z,47.80
2019-06-26T16:13:50.894Z,45.32
2019-06-26T16:18:55.953Z,43.36
2019-06-26T16:23:49.948Z,42.12
2019-06-26T16:28:44.145Z,40.71
2019-06-26T16:33:38.151Z,39.77
2019-06-26T16:38:32.153Z,38.91
2019-06-26T16:43:26.351Z,38.31
2019-06-26T16:48:20.432Z,37.80
2019-06-26T16:53:14.402Z,37.28
2019-06-26T16:58:08.395Z,37.29
2019-06-26T17:03:02.800Z,36.97
2019-06-26T17:07:56.787Z,36.27
2019-06-26T17:12:50.747Z,36.09
2019-06-26T17:17:44.850Z,35.59
2019-06-26T17:22:38.811Z,34.98
2019-06-26T17:27:32.887Z,34.79
2019-06-26T17:32:26.906Z,34.84
2019-06-26T17:37:20.912Z,34.65
2019-06-26T17:42:14.914Z,34.35
2019-06-26T17:47:09.087Z,34.07
2019-06-26T17:52:03.386Z,33.51
2019-06-26T17:56:57.391Z,33.42
2019-06-26T18:01:51.535Z,33.01
2019-06-26T18:06:45.530Z,32.75
2019-06-26T18:11:39.549Z,32.52
2019-06-26T18:16:33.628Z,32.29
2019-06-26T18:21:27.648Z,32.23
2019-06-26T18:26:21.711Z,32.16
2019-06-26T18:31:15.704Z,31.72
2019-06-26T18:36:09.712Z,31.52
2019-06-26T18:41:03.918Z,31.36
2019-06-26T18:45:57.945Z,31.18
2019-06-26T18:50:52.073Z,30.98
2019-06-26T18:55:46.242Z,30.59
2019-06-26T19:00:40.353Z,30.22
2019-06-26T19:05:34.554Z,29.83
2019-06-26T19:10:28.618Z,29.83
2019-06-26T19:15:22.700Z,29.52
2019-06-26T19:20:17.742Z,29.39
2019-06-26T19:25:12.454Z,29.07
2019-06-26T19:30:07.186Z,28.58
2019-06-26T19:35:08.034Z,28.58
2019-06-26T19:39:57.449Z,28.53
2019-06-26T19:44:51.850Z,28.20
2019-06-26T19:49:45.956Z,28.08
2019-06-26T19:54:40.138Z,27.86
2019-06-26T19:59:34.100Z,27.74
2019-06-26T20:04:28.306Z,27.59
2019-06-26T20:09:22.360Z,27.46
2019-06-26T20:14:16.485Z,27.23
2019-06-26T20:19:10.898Z,27.03
2019-06-26T20:24:05.472Z,26.93
2019-06-26T20:28:59.746Z,26.84
2019-06-26T20:33:53.863Z,26.75
2019-06-26T20:38:47.862Z,26.56
2019-06-26T20:43:41.969Z,26.40
2019-06-26T20:48:36.100Z,26.26
2019-06-26T20:53:30.095Z,26.19
2019-06-26T20:58:24.277Z,26.03
2019-06-26T21:03:21.165Z,25.87
2019-06-26T21:08:14.383Z,25.77
2019-06-26T21:13:08.659Z,25.67
2019-06-26T21:18:02.660Z,25.54
2019-06-26T21:22:56.826Z,25.45
2019-06-26T21:27:51.104Z,25.44
2019-06-26T21:32:45.086Z,25.28
2019-06-26T21:37:39.266Z,25.13
2019-06-26T21:42:33.554Z,25.07
2019-06-26T21:47:27.568Z,24.94
2019-06-26T21:52:21.539Z,24.79
2019-06-26T21:57:15.538Z,24.73
2019-06-26T22:02:09.628Z,24.72
2019-06-26T22:07:03.931Z,24.55
2019-06-26T22:12:00.735Z,24.49
2019-06-26T22:16:53.863Z,24.39
2019-06-26T22:21:47.858Z,24.38
2019-06-26T22:26:41.915Z,24.29
2019-06-26T22:31:35.903Z,24.17
2019-06-26T22:36:30.004Z,24.01
2019-06-26T22:41:24.024Z,24.02
2019-06-26T22:46:18.197Z,23.92
2019-06-26T22:51:12.164Z,23.79
2019-06-26T22:56:07.972Z,23.71
2019-06-26T23:01:02.238Z,23.61
2019-06-26T23:05:56.204Z,23.54
2019-06-26T23:10:50.162Z,23.44
2019-06-26T23:15:44.243Z,23.34
2019-06-26T23:20:39.250Z,23.28
2019-06-26T23:25:33.196Z,23.23
2019-06-26T23:30:27.172Z,23.18
2019-06-26T23:35:21.260Z,23.09
2019-06-26T23:40:15.557Z,23.01
2019-06-26T23:45:09.838Z,22.88
2019-06-26T23:50:04.297Z,22.84
2019-06-26T23:54:58.352Z,22.69
2019-06-26T23:59:52.282Z,22.67
